Griswold, Iowa
Current Conditions -  °F | °C
As of 10:15 PM on Thursday 27 Nov 2014 (Local Time) from KAIO Reporting Station
Broken Clouds Broken Clouds  
Wind Chill: 14°   Ceiling: 12000
Heat Index: 23°   Visibility: 10mi
Dew Point: 14°   Wind: 8mph
Humidity: 68%   Direction: 150°SSE
Pressure: 30.22"   Gusts: NA
Location:  41.23°N, 95.14°W
Report Text: KAIO 280415Z AUTO 15007KT 10SM FEW038 BKN120 M05/M10 A3022 RMK AO2
Loading
Personal Weather Stations






























Interactive Weather Map New forecast layout! Learn more

10-Day Weather Forecast

Advertisements
Track Severe Weather on mobile